Harrisburg, AR

9:15 PM CST on January 16, 2017 (GMT -0600)
MD3006 | | Change Station

Elev 245 ft 35.67 °N, 90.71 °W | Updated 8 minutes ago

Overcast
Overcast
64.0 °F
Feels Like 64.0 °F
N
8.0
Wind Variable Wind from SSE

Today
High -- | Low -- °F
--% Chance of Precip.
Yesterday
High -- | Low -- °F
Precip. -- in
Pressure 29.95 in
Visibility 10.0 miles
Clouds Few 800 ft
Mostly Cloudy 2300 ft
Overcast 6500 ft
Dew Point 63 °F
Humidity 96%
Rainfall 0.61 in
Snow Depth Not available.
7:11 AM 5:14 PM
Waning Gibbous, 76% visible
METAR KJBR 170253Z AUTO 20007KT 10SM FEW008 BKN023 OVC065 18/17 A2995 RMK AO2 WSHFT 0141 RAE36 SLP140 P0019 60138 T01780167 55000
Pressure 29.95 in
Visibility 10.0 miles
Clouds Few 800 ft
Mostly Cloudy 2300 ft
Overcast 6500 ft
Dew Point 63 °F
Humidity 96%
Rainfall 0.61 in
Snow Depth Not available.
7:11 AM 5:14 PM
Waning Gibbous, 76% visible
METAR KJBR 170253Z AUTO 20007KT 10SM FEW008 BKN023 OVC065 18/17 A2995 RMK AO2 WSHFT 0141 RAE36 SLP140 P0019 60138 T01780167 55000

Get Your Daily Forecast Email!

Thanks for signing up!

Be on the lookout for a verification email in your inbox.

You'll start receiving the daily forecast at 8 AM.

×

10-Day Weather Forecast

Almanac

Astronomy

Jan. 16, 2017 Rise Set
Actual Time
Civil Twilight
Nautical Twilight
Astronomical Twilight
Moon
Length of Visible Light
Length of Day
Tomorrow will be .
, % of the Moon is Illuminated

Today's Extremes

State Highs State Lows

Community

WunderPhotos

Upload Photos

1,962,540 photos uploaded!

WunderBlog® & News

Nearby

Air Quality

  Air Quality AQ Index Pollutant
Not available.

Snow Depth

Station Depth Elevation

Earthquake Activity

City Distance Mag. Time & Date
Minimum magnitude displayed is 2.5.

Coastal Water Temperatures

Place Temperature

Stations

Nearby Weather Stations

Station Location Temp. Windchill Dew Point Humidity Wind Precip. Elev Updated Type
                   

Watches & Warnings

There are currently no watches in effect.